createdAt,value
2023-04-26T00:01:38.781Z,10.80
2023-04-26T00:04:06.430Z,10.80
2023-04-26T00:06:35.046Z,10.70
2023-04-26T00:09:01.873Z,10.70
2023-04-26T00:11:31.009Z,10.70
2023-04-26T00:13:59.324Z,10.60
2023-04-26T00:16:26.951Z,10.60
2023-04-26T00:18:57.019Z,10.60
2023-04-26T00:21:24.003Z,10.60
2023-04-26T00:23:51.191Z,10.50
2023-04-26T00:26:21.154Z,10.50
2023-04-26T00:28:48.238Z,10.40
2023-04-26T00:31:16.120Z,10.40
2023-04-26T00:33:43.312Z,10.40
2023-04-26T00:36:14.694Z,10.30
2023-04-26T00:38:43.455Z,10.30
2023-04-26T00:41:10.337Z,10.30
2023-04-26T00:43:37.390Z,10.20
2023-04-26T00:46:05.655Z,10.20
2023-04-26T00:48:36.683Z,10.20
2023-04-26T00:51:05.365Z,10.10
2023-04-26T00:53:35.760Z,10.10
2023-04-26T00:56:03.569Z,10.00
2023-04-26T00:58:30.979Z,10.00
2023-04-26T01:00:58.440Z,10.00
2023-04-26T01:03:26.839Z,9.90
2023-04-26T01:05:54.008Z,9.90
2023-04-26T01:08:21.935Z,9.90
2023-04-26T01:10:49.320Z,9.80
2023-04-26T01:13:17.089Z,9.70
2023-04-26T01:15:50.658Z,9.70
2023-04-26T01:18:17.475Z,9.70
2023-04-26T01:20:44.473Z,9.70
2023-04-26T01:23:11.934Z,9.60
2023-04-26T01:25:40.913Z,9.60
2023-04-26T01:28:08.100Z,9.60
2023-04-26T01:30:34.888Z,9.60
2023-04-26T01:33:05.394Z,9.50
2023-04-26T01:35:33.838Z,9.50
2023-04-26T01:38:05.246Z,9.40
2023-04-26T01:40:33.651Z,9.30
2023-04-26T01:43:01.312Z,9.30
2023-04-26T01:45:30.415Z,9.30
2023-04-26T01:47:58.654Z,9.30
2023-04-26T01:50:26.141Z,9.30
2023-04-26T01:52:52.987Z,9.20
2023-04-26T01:55:20.286Z,9.20
2023-04-26T01:57:47.067Z,9.20
2023-04-26T02:00:15.530Z,9.20
2023-04-26T02:02:42.464Z,9.10
2023-04-26T02:05:11.909Z,9.10
2023-04-26T02:07:40.193Z,9.10
2023-04-26T02:10:07.774Z,9.10
2023-04-26T02:12:34.669Z,9.20
2023-04-26T02:15:03.291Z,9.00
2023-04-26T02:17:33.094Z,9.00
2023-04-26T02:20:01.698Z,8.90
2023-04-26T02:22:31.982Z,8.90
2023-04-26T02:24:58.839Z,8.90
2023-04-26T02:27:25.958Z,8.80
2023-04-26T02:29:52.749Z,8.80
2023-04-26T02:32:19.656Z,8.70
2023-04-26T02:34:47.933Z,8.70
2023-04-26T02:37:14.840Z,8.70
2023-04-26T02:39:41.877Z,8.60
2023-04-26T02:42:11.908Z,8.60
2023-04-26T02:44:40.746Z,8.60
2023-04-26T02:47:07.764Z,8.60
2023-04-26T02:49:39.530Z,8.50
2023-04-26T02:52:06.421Z,8.50
2023-04-26T02:54:37.601Z,8.50
2023-04-26T02:57:06.719Z,8.40
2023-04-26T02:59:33.775Z,8.40
2023-04-26T03:02:03.799Z,8.40
2023-04-26T03:04:36.293Z,8.40
2023-04-26T03:07:05.546Z,8.40
2023-04-26T03:09:32.382Z,8.30
2023-04-26T03:11:59.430Z,8.30
2023-04-26T03:14:27.092Z,8.30
2023-04-26T03:16:53.979Z,8.30
2023-04-26T03:19:22.543Z,8.20
2023-04-26T03:21:49.358Z,8.20
2023-04-26T03:24:18.471Z,8.20
2023-04-26T03:26:45.438Z,8.10
2023-04-26T03:29:12.643Z,8.20
2023-04-26T03:31:39.777Z,8.10
2023-04-26T03:34:08.141Z,8.10
2023-04-26T03:36:37.615Z,8.10
2023-04-26T03:39:06.356Z,8.10
2023-04-26T03:44:02.930Z,8.00
2023-04-26T03:49:14.377Z,7.90
2023-04-26T03:51:41.895Z,7.90
2023-04-26T03:54:09.119Z,7.80
2023-04-26T03:56:37.170Z,7.80
2023-04-26T03:59:04.089Z,7.80
2023-04-26T04:01:31.818Z,7.70
2023-04-26T04:03:59.194Z,7.80
2023-04-26T04:06:26.133Z,7.70
2023-04-26T04:08:53.235Z,7.70
2023-04-26T04:11:20.631Z,7.70
2023-04-26T04:13:47.457Z,7.70
2023-04-26T04:16:14.360Z,7.60
2023-04-26T04:18:41.287Z,7.60
2023-04-26T04:21:12.032Z,7.60
2023-04-26T04:23:40.207Z,7.50
2023-04-26T04:26:07.817Z,7.50
2023-04-26T04:28:34.629Z,7.50
2023-04-26T04:31:01.937Z,7.50
2023-04-26T04:33:28.889Z,7.50
2023-04-26T04:35:55.789Z,7.50
2023-04-26T04:38:23.716Z,7.50
2023-04-26T04:43:32.078Z,7.50
2023-04-26T04:45:59.747Z,7.40
2023-04-26T04:48:32.124Z,7.50
2023-04-26T04:50:59.003Z,7.50
2023-04-26T04:53:26.018Z,7.60
2023-04-26T04:55:53.376Z,7.60
2023-04-26T04:58:21.261Z,7.80
2023-04-26T05:00:48.353Z,7.80
2023-04-26T05:03:17.727Z,7.80
2023-04-26T05:05:44.754Z,7.70
2023-04-26T05:08:11.793Z,7.70
2023-04-26T05:10:38.684Z,7.70
2023-04-26T05:13:08.422Z,7.70
2023-04-26T05:15:35.264Z,7.70
2023-04-26T05:18:02.557Z,7.80
2023-04-26T05:20:29.695Z,7.80
2023-04-26T05:22:56.613Z,7.80
2023-04-26T05:25:23.409Z,7.90
2023-04-26T05:27:50.308Z,8.00
2023-04-26T05:30:18.756Z,8.10
2023-04-26T05:32:46.065Z,8.10
2023-04-26T05:35:15.837Z,8.20
2023-04-26T05:37:46.033Z,8.30
2023-04-26T05:40:15.356Z,8.40
2023-04-26T05:42:42.443Z,8.50
2023-04-26T05:45:10.414Z,8.60
2023-04-26T05:47:37.474Z,8.70
2023-04-26T05:50:07.184Z,8.80
2023-04-26T05:52:34.618Z,8.80
2023-04-26T05:55:05.364Z,8.90
2023-04-26T05:57:32.332Z,9.00
2023-04-26T05:59:59.181Z,9.00
2023-04-26T06:02:26.668Z,9.10
2023-04-26T06:04:54.435Z,9.20
2023-04-26T06:07:21.513Z,9.30
2023-04-26T06:09:48.866Z,9.50
2023-04-26T06:12:16.857Z,9.60
2023-04-26T06:14:43.632Z,9.80
2023-04-26T06:17:15.166Z,9.90
2023-04-26T06:19:42.116Z,10.00
2023-04-26T06:22:09.083Z,10.10
2023-04-26T06:24:36.226Z,10.20
2023-04-26T06:27:03.087Z,10.30
2023-04-26T06:29:35.300Z,10.40
2023-04-26T06:32:02.476Z,10.50
2023-04-26T06:34:29.368Z,10.60
2023-04-26T06:36:56.452Z,10.80
2023-04-26T06:39:23.289Z,10.90
2023-04-26T06:41:51.934Z,11.00
2023-04-26T06:44:19.367Z,11.10
2023-04-26T06:46:46.497Z,11.20
2023-04-26T06:49:13.503Z,11.40
2023-04-26T06:51:42.721Z,11.60
2023-04-26T06:54:11.198Z,11.70
2023-04-26T06:56:41.161Z,11.80
2023-04-26T06:59:08.207Z,11.90
2023-04-26T07:01:35.645Z,12.10
2023-04-26T07:04:12.293Z,12.30
2023-04-26T07:06:39.998Z,12.40
2023-04-26T07:09:07.916Z,12.50
2023-04-26T07:11:35.284Z,12.50
2023-04-26T07:14:03.430Z,12.70
2023-04-26T07:16:30.451Z,12.70
2023-04-26T07:19:00.136Z,12.80
2023-04-26T07:21:27.139Z,12.80
2023-04-26T07:23:57.020Z,12.90
2023-04-26T07:26:24.732Z,12.90
2023-04-26T07:28:55.136Z,12.80
2023-04-26T07:31:21.964Z,12.80
2023-04-26T07:33:49.533Z,12.80
2023-04-26T07:36:18.257Z,12.80
2023-04-26T07:38:47.973Z,12.80
2023-04-26T07:41:16.587Z,12.90
2023-04-26T07:43:43.606Z,13.00
2023-04-26T07:46:13.075Z,13.10
2023-04-26T07:48:40.293Z,13.20
2023-04-26T07:51:09.158Z,13.20
2023-04-26T07:53:36.036Z,13.20
2023-04-26T07:56:05.909Z,13.20
2023-04-26T07:58:33.215Z,13.20
2023-04-26T08:01:03.341Z,13.20
2023-04-26T08:03:32.635Z,13.30
2023-04-26T08:05:59.872Z,13.40
2023-04-26T08:08:27.419Z,13.40
2023-04-26T08:10:55.800Z,13.50
2023-04-26T08:13:26.336Z,13.50
2023-04-26T08:15:54.806Z,13.50
2023-04-26T08:18:24.448Z,13.50
2023-04-26T08:20:51.336Z,13.60
2023-04-26T08:23:21.097Z,13.50
2023-04-26T08:25:48.195Z,13.60
2023-04-26T08:28:15.078Z,13.50
2023-04-26T08:30:43.991Z,13.60
2023-04-26T08:33:12.267Z,13.70
2023-04-26T08:35:41.804Z,13.80
2023-04-26T08:38:09.616Z,13.90
2023-04-26T08:40:36.962Z,14.00
2023-04-26T08:43:06.564Z,14.10
2023-04-26T08:45:37.132Z,14.20
2023-04-26T08:48:07.733Z,14.20
2023-04-26T08:50:36.680Z,14.20
2023-04-26T08:53:08.592Z,14.20
2023-04-26T08:55:36.920Z,14.10
2023-04-26T08:58:05.154Z,14.00
2023-04-26T09:00:33.731Z,14.00
2023-04-26T09:03:02.763Z,14.00
2023-04-26T09:05:29.658Z,13.90
2023-04-26T09:08:04.759Z,14.00
2023-04-26T09:10:32.598Z,14.00
2023-04-26T09:13:00.590Z,14.00
2023-04-26T09:15:28.093Z,14.00
2023-04-26T09:17:55.158Z,14.10
2023-04-26T09:20:26.545Z,14.20
2023-04-26T09:23:08.243Z,14.20
2023-04-26T09:25:36.601Z,14.30
2023-04-26T09:28:05.966Z,14.40
2023-04-26T09:30:40.387Z,14.50
2023-04-26T09:33:09.640Z,14.50
2023-04-26T09:35:41.948Z,14.50
2023-04-26T09:38:21.317Z,14.50
2023-04-26T09:40:51.360Z,14.50
2023-04-26T09:43:22.172Z,14.40
2023-04-26T09:45:52.129Z,14.40
2023-04-26T09:48:23.512Z,14.50
2023-04-26T09:50:52.980Z,14.40
2023-04-26T09:53:27.683Z,14.40
2023-04-26T09:56:19.115Z,14.40
2023-04-26T09:59:00.816Z,14.50
2023-04-26T10:01:30.221Z,14.50
2023-04-26T10:03:58.519Z,14.60
2023-04-26T10:06:28.491Z,14.70
2023-04-26T10:08:56.089Z,14.70
2023-04-26T10:11:24.891Z,14.80
2023-04-26T10:13:52.175Z,14.80
2023-04-26T10:16:21.485Z,14.80
2023-04-26T10:18:49.506Z,14.90
2023-04-26T10:21:26.376Z,14.90
2023-04-26T10:23:56.476Z,14.90
2023-04-26T10:26:53.214Z,14.90
2023-04-26T10:29:25.852Z,14.80
2023-04-26T10:32:09.754Z,14.80
2023-04-26T10:34:37.487Z,14.90
2023-04-26T10:37:12.813Z,15.10
2023-04-26T10:39:41.741Z,15.20
2023-04-26T10:42:26.818Z,15.20
2023-04-26T10:47:27.726Z,15.50
2023-04-26T10:50:05.624Z,15.40
2023-04-26T10:52:32.660Z,15.30
2023-04-26T10:55:00.442Z,15.30
2023-04-26T10:57:47.086Z,15.20
2023-04-26T11:00:25.273Z,15.30
2023-04-26T11:02:58.266Z,15.30
2023-04-26T11:05:37.852Z,15.20
2023-04-26T11:08:15.082Z,15.10
2023-04-26T11:10:42.904Z,15.20
2023-04-26T11:13:09.732Z,15.30
2023-04-26T11:15:36.703Z,15.40
2023-04-26T11:18:05.329Z,15.50
2023-04-26T11:20:33.051Z,15.50
2023-04-26T11:23:00.472Z,15.20
2023-04-26T11:25:30.354Z,15.20
2023-04-26T11:28:03.720Z,15.20
2023-04-26T11:30:31.996Z,15.20
2023-04-26T11:33:06.331Z,15.20
2023-04-26T11:35:35.948Z,15.40
2023-04-26T11:38:08.106Z,15.40
2023-04-26T11:40:37.459Z,15.40
2023-04-26T11:43:08.816Z,15.40
2023-04-26T11:45:37.857Z,15.40
2023-04-26T11:48:07.844Z,15.50
2023-04-26T11:50:36.907Z,15.50
2023-04-26T11:53:05.760Z,15.50
2023-04-26T11:55:37.067Z,15.40
2023-04-26T11:58:14.490Z,15.50
2023-04-26T12:01:04.053Z,15.60
2023-04-26T12:03:38.197Z,15.70
2023-04-26T12:06:06.335Z,15.70
2023-04-26T12:08:34.027Z,15.70
2023-04-26T12:11:02.498Z,15.60
2023-04-26T12:13:30.257Z,15.60
2023-04-26T12:15:57.626Z,15.60
2023-04-26T12:18:32.535Z,15.70
2023-04-26T12:21:00.676Z,15.70
2023-04-26T12:23:28.074Z,15.70
2023-04-26T12:25:56.821Z,15.70
2023-04-26T12:28:24.848Z,15.70
2023-04-26T12:30:52.064Z,15.70
2023-04-26T12:33:23.133Z,15.70
2023-04-26T12:35:51.005Z,15.80
2023-04-26T12:38:19.105Z,15.80
2023-04-26T12:40:47.278Z,15.80
2023-04-26T12:43:14.225Z,15.80
2023-04-26T12:45:42.203Z,15.80
2023-04-26T12:48:09.094Z,15.90
2023-04-26T12:50:35.930Z,15.90
2023-04-26T12:53:05.205Z,15.90
2023-04-26T12:55:33.528Z,16.00
2023-04-26T12:58:00.767Z,16.00
2023-04-26T13:00:27.679Z,16.00
2023-04-26T13:02:54.810Z,16.00
2023-04-26T13:05:24.947Z,16.10
2023-04-26T13:07:51.956Z,16.10
2023-04-26T13:10:19.472Z,16.10
2023-04-26T13:12:46.399Z,16.00
2023-04-26T13:15:13.582Z,15.90
2023-04-26T13:17:43.151Z,16.00
2023-04-26T13:20:10.621Z,15.90
2023-04-26T13:22:39.819Z,15.90
2023-04-26T13:25:07.348Z,16.00
2023-04-26T13:27:34.216Z,16.00
2023-04-26T13:30:01.674Z,16.10
2023-04-26T13:32:29.589Z,16.10
2023-04-26T13:34:57.090Z,16.10
2023-04-26T13:37:24.069Z,16.10
2023-04-26T13:39:51.317Z,16.10
2023-04-26T13:42:18.458Z,16.10
2023-04-26T13:44:45.709Z,16.10
2023-04-26T13:47:12.534Z,16.00
2023-04-26T13:49:45.147Z,16.00
2023-04-26T13:52:12.136Z,16.00
2023-04-26T13:54:42.107Z,15.90
2023-04-26T13:57:08.952Z,15.90
2023-04-26T13:59:35.735Z,16.00
2023-04-26T14:02:02.639Z,15.90
2023-04-26T14:04:31.094Z,15.80
2023-04-26T14:06:59.557Z,15.90
2023-04-26T14:09:26.497Z,15.80
2023-04-26T14:12:06.528Z,15.80
2023-04-26T14:14:35.139Z,15.60
2023-04-26T14:17:03.260Z,15.70
2023-04-26T14:19:32.670Z,15.60
2023-04-26T14:21:59.635Z,15.60
2023-04-26T14:24:26.751Z,15.60
2023-04-26T14:26:54.891Z,15.70
2023-04-26T14:29:23.353Z,15.70
2023-04-26T14:31:51.135Z,15.80
2023-04-26T14:34:19.129Z,15.80
2023-04-26T14:36:46.522Z,15.80
2023-04-26T14:39:15.642Z,15.80
2023-04-26T14:41:42.934Z,15.90
2023-04-26T14:44:09.793Z,15.80
2023-04-26T14:46:37.505Z,15.70
2023-04-26T14:49:04.324Z,15.70
2023-04-26T14:51:32.135Z,15.70
2023-04-26T14:53:59.808Z,15.80
2023-04-26T14:56:27.073Z,15.70
2023-04-26T14:58:53.818Z,15.60
2023-04-26T15:01:20.932Z,15.60
2023-04-26T15:03:47.984Z,15.60
2023-04-26T15:06:16.000Z,15.60
2023-04-26T15:08:42.828Z,15.60
2023-04-26T15:11:09.796Z,15.70
2023-04-26T15:13:36.634Z,15.70
2023-04-26T15:16:07.483Z,15.70
2023-04-26T15:18:35.008Z,15.60
2023-04-26T15:21:03.816Z,15.60
2023-04-26T15:23:31.179Z,15.60
2023-04-26T15:26:02.445Z,15.60
2023-04-26T15:28:29.594Z,15.60
2023-04-26T15:31:04.227Z,15.50
2023-04-26T15:33:31.227Z,15.60
2023-04-26T15:35:58.158Z,15.50
2023-04-26T15:38:26.246Z,15.50
2023-04-26T15:40:53.997Z,15.40
2023-04-26T15:43:22.277Z,15.30
2023-04-26T15:45:49.959Z,15.30
2023-04-26T15:48:17.062Z,15.30
2023-04-26T15:50:43.968Z,15.40
2023-04-26T15:53:11.186Z,15.40
2023-04-26T15:55:38.054Z,15.40
2023-04-26T15:58:05.356Z,15.40
2023-04-26T16:00:33.463Z,15.40
2023-04-26T16:03:00.456Z,15.40
2023-04-26T16:05:27.946Z,15.40
2023-04-26T16:07:54.809Z,15.40
2023-04-26T16:10:22.918Z,15.40
2023-04-26T16:12:49.815Z,15.40
2023-04-26T16:15:16.762Z,15.40
2023-04-26T16:17:43.665Z,15.40
2023-04-26T16:20:11.692Z,15.20
2023-04-26T16:22:38.520Z,15.10
2023-04-26T16:25:07.184Z,15.10
2023-04-26T16:27:34.355Z,15.10
2023-04-26T16:30:02.082Z,15.00
2023-04-26T16:32:30.767Z,15.00
2023-04-26T16:34:57.577Z,14.90
2023-04-26T16:37:24.424Z,14.90
2023-04-26T16:39:55.789Z,14.90
2023-04-26T16:42:25.527Z,15.00
2023-04-26T16:44:54.817Z,14.90
2023-04-26T16:47:21.974Z,14.90
2023-04-26T16:49:48.785Z,14.90
2023-04-26T16:52:15.588Z,14.80
2023-04-26T16:54:42.446Z,14.80
2023-04-26T16:57:11.213Z,14.80
2023-04-26T16:59:38.068Z,14.70
2023-04-26T17:02:06.975Z,14.70
2023-04-26T17:04:34.277Z,14.70
2023-04-26T17:07:01.426Z,14.60
2023-04-26T17:09:28.309Z,14.70
2023-04-26T17:11:56.807Z,14.60
2023-04-26T17:14:23.785Z,14.60
2023-04-26T17:16:50.821Z,14.60
2023-04-26T17:19:20.894Z,14.50
2023-04-26T17:21:47.972Z,14.50
2023-04-26T17:24:15.165Z,14.50
2023-04-26T17:26:42.868Z,14.40
2023-04-26T17:29:09.951Z,14.40
2023-04-26T17:31:36.781Z,14.40
2023-04-26T17:34:04.904Z,14.40
2023-04-26T17:36:32.095Z,14.40
2023-04-26T17:38:59.015Z,14.40
2023-04-26T17:41:26.182Z,14.30
2023-04-26T17:43:52.966Z,14.30
2023-04-26T17:46:20.040Z,14.30
2023-04-26T17:48:46.996Z,14.20
2023-04-26T17:51:13.949Z,14.30
2023-04-26T17:53:49.996Z,14.20
2023-04-26T17:56:18.386Z,14.10
2023-04-26T17:58:46.352Z,14.10
2023-04-26T18:01:13.172Z,14.10
2023-04-26T18:03:41.703Z,14.00
2023-04-26T18:06:09.582Z,14.00
2023-04-26T18:08:38.793Z,14.00
2023-04-26T18:11:05.635Z,14.00
2023-04-26T18:13:32.504Z,13.90
2023-04-26T18:16:00.370Z,14.00
2023-04-26T18:18:27.984Z,14.00
2023-04-26T18:20:55.017Z,14.00
2023-04-26T18:23:22.090Z,14.00
2023-04-26T18:25:50.696Z,14.00
2023-04-26T18:28:17.516Z,14.00
2023-04-26T18:30:44.309Z,14.00
2023-04-26T18:33:11.451Z,13.90
2023-04-26T18:35:38.247Z,13.90
2023-04-26T18:38:06.279Z,13.90
2023-04-26T18:40:33.112Z,13.90
2023-04-26T18:42:59.976Z,13.90
2023-04-26T18:45:28.882Z,13.90
2023-04-26T18:47:56.486Z,13.90
2023-04-26T18:50:23.422Z,13.80
2023-04-26T18:52:50.227Z,13.80
2023-04-26T18:55:17.116Z,13.80
2023-04-26T18:57:43.995Z,13.80
2023-04-26T19:00:11.995Z,13.80
2023-04-26T19:02:40.483Z,13.70
2023-04-26T19:05:09.916Z,13.70
2023-04-26T19:07:37.588Z,13.60
2023-04-26T19:10:04.917Z,13.70
2023-04-26T19:12:31.807Z,13.60
2023-04-26T19:14:58.649Z,13.60
2023-04-26T19:17:26.455Z,13.50
2023-04-26T19:19:53.780Z,13.50
2023-04-26T19:22:20.758Z,13.50
2023-04-26T19:24:51.216Z,13.50
2023-04-26T19:27:18.302Z,13.50
2023-04-26T19:29:45.205Z,13.50
2023-04-26T19:32:14.510Z,13.40
2023-04-26T19:34:41.332Z,13.40
2023-04-26T19:37:09.139Z,13.40
2023-04-26T19:39:36.006Z,13.40
2023-04-26T19:42:03.497Z,13.30
2023-04-26T19:44:30.607Z,13.30
2023-04-26T19:46:57.457Z,13.30
2023-04-26T19:49:24.605Z,13.30
2023-04-26T19:51:53.499Z,13.20
2023-04-26T19:54:20.446Z,13.20
2023-04-26T19:56:47.256Z,13.20
2023-04-26T19:59:15.196Z,13.20
2023-04-26T20:01:43.154Z,13.10
2023-04-26T20:04:10.161Z,13.10
2023-04-26T20:06:37.033Z,13.10
2023-04-26T20:09:05.281Z,13.10
2023-04-26T20:11:32.872Z,13.00
2023-04-26T20:13:59.678Z,13.10
2023-04-26T20:16:26.518Z,13.00
2023-04-26T20:18:54.619Z,13.00
2023-04-26T20:21:21.423Z,13.00
2023-04-26T20:23:49.276Z,12.90
2023-04-26T20:26:16.236Z,13.00
2023-04-26T20:28:42.996Z,13.00
2023-04-26T20:31:10.987Z,13.00
2023-04-26T20:33:40.183Z,12.90
2023-04-26T20:36:07.324Z,12.90
2023-04-26T20:38:37.045Z,12.90
2023-04-26T20:41:03.808Z,12.90
2023-04-26T20:43:31.675Z,12.90
2023-04-26T20:45:59.535Z,12.80
2023-04-26T20:48:26.599Z,12.80
2023-04-26T20:50:58.774Z,12.80
2023-04-26T20:53:27.122Z,12.80
2023-04-26T20:55:54.068Z,12.80
2023-04-26T20:58:20.963Z,12.70
2023-04-26T21:00:55.381Z,12.70
2023-04-26T21:03:23.068Z,12.70
2023-04-26T21:05:50.417Z,12.60
2023-04-26T21:08:17.295Z,12.60
2023-04-26T21:10:44.212Z,12.60
2023-04-26T21:13:11.420Z,12.60
2023-04-26T21:15:38.299Z,12.60
2023-04-26T21:18:07.122Z,12.60
2023-04-26T21:20:34.957Z,12.60
2023-04-26T21:23:01.961Z,12.60
2023-04-26T21:25:28.811Z,12.50
2023-04-26T21:27:55.564Z,12.50
2023-04-26T21:30:22.562Z,12.50
2023-04-26T21:32:49.453Z,12.50
2023-04-26T21:35:16.700Z,12.50
2023-04-26T21:37:45.189Z,12.50
2023-04-26T21:40:12.539Z,12.40
2023-04-26T21:42:39.693Z,12.40
2023-04-26T21:45:07.231Z,12.40
2023-04-26T21:47:34.162Z,12.40
2023-04-26T21:50:01.271Z,12.40
2023-04-26T21:52:28.090Z,12.40
2023-04-26T21:54:54.997Z,12.40
2023-04-26T21:57:24.256Z,12.40
2023-04-26T21:59:51.526Z,12.40
2023-04-26T22:02:18.868Z,12.40
2023-04-26T22:04:45.854Z,12.30
2023-04-26T22:07:12.621Z,12.40
2023-04-26T22:09:39.779Z,12.30
2023-04-26T22:12:06.996Z,12.30
2023-04-26T22:14:33.762Z,12.30
2023-04-26T22:17:00.791Z,12.20
2023-04-26T22:19:28.616Z,12.30
2023-04-26T22:21:56.427Z,12.20
2023-04-26T22:24:23.592Z,12.20
2023-04-26T22:26:50.415Z,12.20
2023-04-26T22:29:17.239Z,12.10
2023-04-26T22:31:44.836Z,12.10
2023-04-26T22:34:11.939Z,12.10
2023-04-26T22:36:39.987Z,12.10
2023-04-26T22:39:06.792Z,12.00
2023-04-26T22:41:33.549Z,12.00
2023-04-26T22:44:00.477Z,12.00
2023-04-26T22:46:27.342Z,12.00
2023-04-26T22:48:54.260Z,12.00
2023-04-26T22:51:21.036Z,11.90
2023-04-26T22:53:52.078Z,11.90
2023-04-26T22:56:18.886Z,11.80
2023-04-26T22:58:46.077Z,11.80
2023-04-26T23:01:12.924Z,11.80
2023-04-26T23:03:39.876Z,11.80
2023-04-26T23:06:07.072Z,11.80
2023-04-26T23:08:34.243Z,11.80
2023-04-26T23:11:01.073Z,11.70
2023-04-26T23:13:27.894Z,11.70
2023-04-26T23:15:54.693Z,11.70
2023-04-26T23:18:22.608Z,11.70
2023-04-26T23:20:51.618Z,11.60
2023-04-26T23:23:18.447Z,11.60
2023-04-26T23:25:45.247Z,11.60
2023-04-26T23:28:12.127Z,11.50
2023-04-26T23:30:40.063Z,11.50
2023-04-26T23:33:07.396Z,11.50
2023-04-26T23:35:34.302Z,11.50
2023-04-26T23:38:01.192Z,11.40
2023-04-26T23:40:28.089Z,11.40
2023-04-26T23:42:54.999Z,11.30
2023-04-26T23:45:22.305Z,11.30
2023-04-26T23:47:49.115Z,11.20
2023-04-26T23:50:16.034Z,11.20
2023-04-26T23:52:43.068Z,11.20
2023-04-26T23:55:11.681Z,11.10
2023-04-26T23:57:38.569Z,11.10
